sensor_id;sensor_type;location;lat;lon;timestamp;temperature;humidity
31391;DHT22;18022;45.492;11.548;2022-07-30T00:01:53;23.20;99.90
31391;DHT22;18022;45.492;11.548;2022-07-30T00:04:19;23.20;99.90
31391;DHT22;18022;45.492;11.548;2022-07-30T00:06:45;23.30;99.90
31391;DHT22;18022;45.492;11.548;2022-07-30T00:09:11;23.30;99.90
31391;DHT22;18022;45.492;11.548;2022-07-30T00:11:36;23.20;99.90
31391;DHT22;18022;45.492;11.548;2022-07-30T00:14:02;23.20;99.90
31391;DHT22;18022;45.492;11.548;2022-07-30T00:16:28;23.10;99.90
31391;DHT22;18022;45.492;11.548;2022-07-30T00:18:54;23.00;99.90
31391;DHT22;18022;45.492;11.548;2022-07-30T00:21:19;23.00;99.90
31391;DHT22;18022;45.492;11.548;2022-07-30T00:23:45;22.90;99.90
31391;DHT22;18022;45.492;11.548;2022-07-30T00:26:11;23.00;99.90
31391;DHT22;18022;45.492;11.548;2022-07-30T00:28:36;23.20;99.90
31391;DHT22;18022;45.492;11.548;2022-07-30T00:31:02;23.10;99.90
31391;DHT22;18022;45.492;11.548;2022-07-30T00:33:28;23.10;99.90
31391;DHT22;18022;45.492;11.548;2022-07-30T00:35:53;23.10;99.90
31391;DHT22;18022;45.492;11.548;2022-07-30T00:38:19;23.20;99.90
31391;DHT22;18022;45.492;11.548;2022-07-30T00:40:46;23.20;99.90
31391;DHT22;18022;45.492;11.548;2022-07-30T00:43:16;23.30;99.90
31391;DHT22;18022;45.492;11.548;2022-07-30T00:45:45;23.20;99.90
31391;DHT22;18022;45.492;11.548;2022-07-30T00:48:12;23.10;99.90
31391;DHT22;18022;45.492;11.548;2022-07-30T00:50:39;23.20;99.90
31391;DHT22;18022;45.492;11.548;2022-07-30T00:53:05;23.20;99.90
31391;DHT22;18022;45.492;11.548;2022-07-30T00:55:31;23.20;99.90
31391;DHT22;18022;45.492;11.548;2022-07-30T00:57:57;23.10;99.90
31391;DHT22;18022;45.492;11.548;2022-07-30T01:00:24;22.90;99.90
31391;DHT22;18022;45.492;11.548;2022-07-30T01:02:49;22.90;99.90
31391;DHT22;18022;45.492;11.548;2022-07-30T01:05:15;22.90;99.90
31391;DHT22;18022;45.492;11.548;2022-07-30T01:07:42;22.90;99.90
31391;DHT22;18022;45.492;11.548;2022-07-30T01:10:09;23.00;99.90
31391;DHT22;18022;45.492;11.548;2022-07-30T01:12:36;23.10;99.90
31391;DHT22;18022;45.492;11.548;2022-07-30T01:15:04;23.10;99.90
31391;DHT22;18022;45.492;11.548;2022-07-30T01:17:30;22.90;99.90
31391;DHT22;18022;45.492;11.548;2022-07-30T01:20:01;22.80;99.90
31391;DHT22;18022;45.492;11.548;2022-07-30T01:27:50;22.20;99.90
31391;DHT22;18022;45.492;11.548;2022-07-30T01:30:19;22.20;99.90
31391;DHT22;18022;45.492;11.548;2022-07-30T01:32:47;22.30;99.90
31391;DHT22;18022;45.492;11.548;2022-07-30T01:35:14;22.30;99.90
31391;DHT22;18022;45.492;11.548;2022-07-30T01:37:41;22.30;99.90
31391;DHT22;18022;45.492;11.548;2022-07-30T01:40:09;22.30;99.90
31391;DHT22;18022;45.492;11.548;2022-07-30T01:42:37;22.50;99.90
31391;DHT22;18022;45.492;11.548;2022-07-30T01:45:03;22.40;99.90
31391;DHT22;18022;45.492;11.548;2022-07-30T01:47:32;22.40;99.90
31391;DHT22;18022;45.492;11.548;2022-07-30T01:49:59;22.30;99.90
31391;DHT22;18022;45.492;11.548;2022-07-30T01:52:27;22.10;99.90
31391;DHT22;18022;45.492;11.548;2022-07-30T01:54:57;22.10;99.90
31391;DHT22;18022;45.492;11.548;2022-07-30T01:57:25;22.20;99.90
31391;DHT22;18022;45.492;11.548;2022-07-30T01:59:54;22.10;99.90
31391;DHT22;18022;45.492;11.548;2022-07-30T02:02:22;21.90;99.90
31391;DHT22;18022;45.492;11.548;2022-07-30T02:04:48;22.00;99.90
31391;DHT22;18022;45.492;11.548;2022-07-30T02:07:19;21.90;99.90
31391;DHT22;18022;45.492;11.548;2022-07-30T02:10:04;21.80;99.90
31391;DHT22;18022;45.492;11.548;2022-07-30T02:12:32;21.80;99.90
31391;DHT22;18022;45.492;11.548;2022-07-30T02:15:08;21.90;99.90
31391;DHT22;18022;45.492;11.548;2022-07-30T02:18:02;21.90;99.90
31391;DHT22;18022;45.492;11.548;2022-07-30T02:20:30;22.00;99.90
31391;DHT22;18022;45.492;11.548;2022-07-30T02:23:04;22.10;99.90
31391;DHT22;18022;45.492;11.548;2022-07-30T02:25:33;22.10;99.90
31391;DHT22;18022;45.492;11.548;2022-07-30T02:28:09;22.10;99.90
31391;DHT22;18022;45.492;11.548;2022-07-30T02:30:39;22.00;99.90
31391;DHT22;18022;45.492;11.548;2022-07-30T02:33:06;21.80;99.90
31391;DHT22;18022;45.492;11.548;2022-07-30T02:35:36;21.70;99.90
31391;DHT22;18022;45.492;11.548;2022-07-30T02:38:03;21.50;99.90
31391;DHT22;18022;45.492;11.548;2022-07-30T02:40:30;21.60;99.90
31391;DHT22;18022;45.492;11.548;2022-07-30T02:42:57;21.70;99.90
31391;DHT22;18022;45.492;11.548;2022-07-30T02:45:24;21.90;99.90
31391;DHT22;18022;45.492;11.548;2022-07-30T02:47:56;22.00;99.90
31391;DHT22;18022;45.492;11.548;2022-07-30T02:50:23;22.10;99.90
31391;DHT22;18022;45.492;11.548;2022-07-30T02:52:51;22.10;99.90
31391;DHT22;18022;45.492;11.548;2022-07-30T02:55:19;22.00;99.90
31391;DHT22;18022;45.492;11.548;2022-07-30T02:57:46;22.00;99.90
31391;DHT22;18022;45.492;11.548;2022-07-30T03:00:13;22.00;99.90
31391;DHT22;18022;45.492;11.548;2022-07-30T03:02:39;21.90;99.90
31391;DHT22;18022;45.492;11.548;2022-07-30T03:05:07;21.80;99.90
31391;DHT22;18022;45.492;11.548;2022-07-30T03:07:34;21.80;99.90
31391;DHT22;18022;45.492;11.548;2022-07-30T03:10:01;21.90;99.90
31391;DHT22;18022;45.492;11.548;2022-07-30T03:12:29;22.00;99.90
31391;DHT22;18022;45.492;11.548;2022-07-30T03:14:56;22.10;99.90
31391;DHT22;18022;45.492;11.548;2022-07-30T03:17:24;22.10;99.90
31391;DHT22;18022;45.492;11.548;2022-07-30T03:19:52;21.90;99.90
31391;DHT22;18022;45.492;11.548;2022-07-30T03:22:21;21.80;99.90
31391;DHT22;18022;45.492;11.548;2022-07-30T03:24:47;21.80;99.90
31391;DHT22;18022;45.492;11.548;2022-07-30T03:27:15;21.40;99.90
31391;DHT22;18022;45.492;11.548;2022-07-30T03:29:43;21.30;99.90
31391;DHT22;18022;45.492;11.548;2022-07-30T03:32:11;21.20;99.90
31391;DHT22;18022;45.492;11.548;2022-07-30T03:34:37;21.10;99.90
31391;DHT22;18022;45.492;11.548;2022-07-30T03:37:03;21.40;99.90
31391;DHT22;18022;45.492;11.548;2022-07-30T03:39:33;21.50;99.90
31391;DHT22;18022;45.492;11.548;2022-07-30T03:41:59;21.60;99.90
31391;DHT22;18022;45.492;11.548;2022-07-30T03:44:25;21.50;99.90
31391;DHT22;18022;45.492;11.548;2022-07-30T03:46:52;21.60;99.90
31391;DHT22;18022;45.492;11.548;2022-07-30T03:49:20;21.80;99.90
31391;DHT22;18022;45.492;11.548;2022-07-30T03:51:48;21.70;99.90
31391;DHT22;18022;45.492;11.548;2022-07-30T03:54:14;21.70;99.90
31391;DHT22;18022;45.492;11.548;2022-07-30T03:56:40;21.60;99.90
31391;DHT22;18022;45.492;11.548;2022-07-30T03:59:06;21.60;99.90
31391;DHT22;18022;45.492;11.548;2022-07-30T04:01:33;21.60;99.90
31391;DHT22;18022;45.492;11.548;2022-07-30T04:04:06;21.20;99.90
31391;DHT22;18022;45.492;11.548;2022-07-30T04:06:33;21.10;99.90
31391;DHT22;18022;45.492;11.548;2022-07-30T04:09:07;20.90;99.90
31391;DHT22;18022;45.492;11.548;2022-07-30T04:11:33;20.80;99.90
31391;DHT22;18022;45.492;11.548;2022-07-30T04:13:59;20.80;99.90
31391;DHT22;18022;45.492;11.548;2022-07-30T04:16:34;20.70;99.90
31391;DHT22;18022;45.492;11.548;2022-07-30T04:19:02;20.70;99.90
31391;DHT22;18022;45.492;11.548;2022-07-30T04:21:31;20.80;99.90
31391;DHT22;18022;45.492;11.548;2022-07-30T04:23:58;20.90;99.90
31391;DHT22;18022;45.492;11.548;2022-07-30T04:26:28;20.90;99.90
31391;DHT22;18022;45.492;11.548;2022-07-30T04:28:56;20.90;99.90
31391;DHT22;18022;45.492;11.548;2022-07-30T04:31:22;20.90;99.90
31391;DHT22;18022;45.492;11.548;2022-07-30T04:33:48;20.90;99.90
31391;DHT22;18022;45.492;11.548;2022-07-30T04:36:14;20.90;99.90
31391;DHT22;18022;45.492;11.548;2022-07-30T04:38:39;21.00;99.90
31391;DHT22;18022;45.492;11.548;2022-07-30T04:41:05;21.00;99.90
31391;DHT22;18022;45.492;11.548;2022-07-30T04:43:32;21.00;99.90
31391;DHT22;18022;45.492;11.548;2022-07-30T04:45:57;21.00;99.90
31391;DHT22;18022;45.492;11.548;2022-07-30T04:48:23;21.00;99.90
31391;DHT22;18022;45.492;11.548;2022-07-30T04:50:52;21.10;99.90
31391;DHT22;18022;45.492;11.548;2022-07-30T04:53:19;21.20;99.90
31391;DHT22;18022;45.492;11.548;2022-07-30T04:55:46;21.30;99.90
31391;DHT22;18022;45.492;11.548;2022-07-30T04:58:14;21.30;99.90
31391;DHT22;18022;45.492;11.548;2022-07-30T05:00:41;21.40;99.90
31391;DHT22;18022;45.492;11.548;2022-07-30T05:03:10;21.60;99.90
31391;DHT22;18022;45.492;11.548;2022-07-30T05:05:36;21.60;99.90
31391;DHT22;18022;45.492;11.548;2022-07-30T05:08:03;21.60;99.90
31391;DHT22;18022;45.492;11.548;2022-07-30T05:10:29;21.50;99.90
31391;DHT22;18022;45.492;11.548;2022-07-30T05:12:54;21.60;99.90
31391;DHT22;18022;45.492;11.548;2022-07-30T05:15:20;21.60;99.90
31391;DHT22;18022;45.492;11.548;2022-07-30T05:17:46;21.60;99.90
31391;DHT22;18022;45.492;11.548;2022-07-30T05:20:12;21.60;99.90
31391;DHT22;18022;45.492;11.548;2022-07-30T05:22:38;21.70;99.90
31391;DHT22;18022;45.492;11.548;2022-07-30T05:25:04;21.70;99.90
31391;DHT22;18022;45.492;11.548;2022-07-30T05:27:30;21.70;99.90
31391;DHT22;18022;45.492;11.548;2022-07-30T05:29:56;21.70;99.90
31391;DHT22;18022;45.492;11.548;2022-07-30T05:32:21;21.80;99.90
31391;DHT22;18022;45.492;11.548;2022-07-30T05:34:47;21.80;99.90
31391;DHT22;18022;45.492;11.548;2022-07-30T05:37:13;21.80;99.90
31391;DHT22;18022;45.492;11.548;2022-07-30T05:39:38;21.90;99.90
31391;DHT22;18022;45.492;11.548;2022-07-30T05:42:04;21.90;99.90
31391;DHT22;18022;45.492;11.548;2022-07-30T05:44:30;22.00;99.90
31391;DHT22;18022;45.492;11.548;2022-07-30T05:46:55;22.10;99.90
31391;DHT22;18022;45.492;11.548;2022-07-30T05:49:21;22.10;99.90
31391;DHT22;18022;45.492;11.548;2022-07-30T05:51:47;22.20;99.90
31391;DHT22;18022;45.492;11.548;2022-07-30T05:54:12;22.30;99.90
31391;DHT22;18022;45.492;11.548;2022-07-30T05:56:38;22.30;99.90
31391;DHT22;18022;45.492;11.548;2022-07-30T05:59:05;22.40;99.90
31391;DHT22;18022;45.492;11.548;2022-07-30T06:01:31;22.50;99.90
31391;DHT22;18022;45.492;11.548;2022-07-30T06:03:56;22.50;99.90
31391;DHT22;18022;45.492;11.548;2022-07-30T06:06:22;22.60;99.90
31391;DHT22;18022;45.492;11.548;2022-07-30T06:08:48;22.70;99.90
31391;DHT22;18022;45.492;11.548;2022-07-30T06:11:14;22.80;99.90
31391;DHT22;18022;45.492;11.548;2022-07-30T06:13:40;22.80;99.90
31391;DHT22;18022;45.492;11.548;2022-07-30T06:16:06;22.90;99.90
31391;DHT22;18022;45.492;11.548;2022-07-30T06:18:31;22.90;99.90
31391;DHT22;18022;45.492;11.548;2022-07-30T06:20:58;23.00;99.90
31391;DHT22;18022;45.492;11.548;2022-07-30T06:23:23;23.20;99.90
31391;DHT22;18022;45.492;11.548;2022-07-30T06:25:49;23.20;99.90
31391;DHT22;18022;45.492;11.548;2022-07-30T06:28:17;23.20;99.90
31391;DHT22;18022;45.492;11.548;2022-07-30T06:30:43;23.30;99.90
31391;DHT22;18022;45.492;11.548;2022-07-30T06:33:14;23.30;99.90
31391;DHT22;18022;45.492;11.548;2022-07-30T06:35:40;23.30;99.90
31391;DHT22;18022;45.492;11.548;2022-07-30T06:38:06;23.40;99.90
31391;DHT22;18022;45.492;11.548;2022-07-30T06:40:31;23.40;99.90
31391;DHT22;18022;45.492;11.548;2022-07-30T06:42:58;23.50;99.90
31391;DHT22;18022;45.492;11.548;2022-07-30T06:45:23;23.60;99.90
31391;DHT22;18022;45.492;11.548;2022-07-30T06:47:49;23.60;99.90
31391;DHT22;18022;45.492;11.548;2022-07-30T06:50:15;23.70;99.90
31391;DHT22;18022;45.492;11.548;2022-07-30T06:52:43;23.70;99.90
31391;DHT22;18022;45.492;11.548;2022-07-30T06:55:09;23.80;99.90
31391;DHT22;18022;45.492;11.548;2022-07-30T06:57:34;23.90;99.90
31391;DHT22;18022;45.492;11.548;2022-07-30T07:00:00;24.00;99.90
31391;DHT22;18022;45.492;11.548;2022-07-30T07:02:26;24.00;99.90
31391;DHT22;18022;45.492;11.548;2022-07-30T07:04:52;24.00;99.90
31391;DHT22;18022;45.492;11.548;2022-07-30T07:07:18;24.10;99.90
31391;DHT22;18022;45.492;11.548;2022-07-30T07:09:44;24.30;99.90
31391;DHT22;18022;45.492;11.548;2022-07-30T07:12:09;24.30;99.90
31391;DHT22;18022;45.492;11.548;2022-07-30T07:14:35;24.40;99.90
31391;DHT22;18022;45.492;11.548;2022-07-30T07:17:01;24.40;99.90
31391;DHT22;18022;45.492;11.548;2022-07-30T07:19:27;24.50;99.90
31391;DHT22;18022;45.492;11.548;2022-07-30T07:21:52;24.50;99.90
31391;DHT22;18022;45.492;11.548;2022-07-30T07:24:18;24.50;99.90
31391;DHT22;18022;45.492;11.548;2022-07-30T07:26:44;24.60;99.90
31391;DHT22;18022;45.492;11.548;2022-07-30T07:29:10;24.70;99.90
31391;DHT22;18022;45.492;11.548;2022-07-30T07:31:36;24.90;99.90
31391;DHT22;18022;45.492;11.548;2022-07-30T07:34:01;25.00;99.90
31391;DHT22;18022;45.492;11.548;2022-07-30T07:36:27;25.20;99.90
31391;DHT22;18022;45.492;11.548;2022-07-30T07:38:53;25.40;99.90
31391;DHT22;18022;45.492;11.548;2022-07-30T07:41:19;25.60;99.90
31391;DHT22;18022;45.492;11.548;2022-07-30T07:43:44;25.70;99.90
31391;DHT22;18022;45.492;11.548;2022-07-30T07:46:10;25.40;99.90
31391;DHT22;18022;45.492;11.548;2022-07-30T07:48:41;25.20;99.90
31391;DHT22;18022;45.492;11.548;2022-07-30T07:51:07;25.20;99.90
31391;DHT22;18022;45.492;11.548;2022-07-30T07:53:32;25.20;99.90
31391;DHT22;18022;45.492;11.548;2022-07-30T07:55:58;25.30;99.90
31391;DHT22;18022;45.492;11.548;2022-07-30T07:58:24;25.30;99.90
31391;DHT22;18022;45.492;11.548;2022-07-30T08:00:50;25.40;99.90
31391;DHT22;18022;45.492;11.548;2022-07-30T08:03:15;25.40;99.90
31391;DHT22;18022;45.492;11.548;2022-07-30T08:05:41;25.50;99.90
31391;DHT22;18022;45.492;11.548;2022-07-30T08:08:07;25.50;99.90
31391;DHT22;18022;45.492;11.548;2022-07-30T08:10:32;25.60;99.90
31391;DHT22;18022;45.492;11.548;2022-07-30T08:12:58;25.60;99.90
31391;DHT22;18022;45.492;11.548;2022-07-30T08:15:24;25.70;99.90
31391;DHT22;18022;45.492;11.548;2022-07-30T08:17:50;25.70;99.90
31391;DHT22;18022;45.492;11.548;2022-07-30T08:20:15;25.80;99.90
31391;DHT22;18022;45.492;11.548;2022-07-30T08:22:41;25.80;99.90
31391;DHT22;18022;45.492;11.548;2022-07-30T08:25:07;25.90;99.90
31391;DHT22;18022;45.492;11.548;2022-07-30T08:27:34;26.00;99.80
31391;DHT22;18022;45.492;11.548;2022-07-30T08:30:07;26.10;99.70
31391;DHT22;18022;45.492;11.548;2022-07-30T08:32:34;26.00;99.40
31391;DHT22;18022;45.492;11.548;2022-07-30T08:35:00;25.90;99.50
31391;DHT22;18022;45.492;11.548;2022-07-30T08:37:25;26.00;99.60
31391;DHT22;18022;45.492;11.548;2022-07-30T08:39:51;26.10;99.50
31391;DHT22;18022;45.492;11.548;2022-07-30T08:42:18;26.20;99.70
31391;DHT22;18022;45.492;11.548;2022-07-30T08:44:45;26.30;99.30
31391;DHT22;18022;45.492;11.548;2022-07-30T08:47:17;26.40;98.90
31391;DHT22;18022;45.492;11.548;2022-07-30T08:49:45;26.60;99.90
31391;DHT22;18022;45.492;11.548;2022-07-30T08:52:10;26.80;98.60
31391;DHT22;18022;45.492;11.548;2022-07-30T08:54:38;26.70;98.50
31391;DHT22;18022;45.492;11.548;2022-07-30T08:57:04;26.60;98.70
31391;DHT22;18022;45.492;11.548;2022-07-30T08:59:30;26.60;97.90
31391;DHT22;18022;45.492;11.548;2022-07-30T09:01:57;26.60;98.40
31391;DHT22;18022;45.492;11.548;2022-07-30T09:04:23;26.70;98.20
31391;DHT22;18022;45.492;11.548;2022-07-30T09:06:48;26.80;98.80
31391;DHT22;18022;45.492;11.548;2022-07-30T09:09:14;26.80;97.80
31391;DHT22;18022;45.492;11.548;2022-07-30T09:11:40;26.90;98.60
31391;DHT22;18022;45.492;11.548;2022-07-30T09:14:07;26.90;98.10
31391;DHT22;18022;45.492;11.548;2022-07-30T09:16:34;27.10;98.50
31391;DHT22;18022;45.492;11.548;2022-07-30T09:19:17;27.20;97.50
31391;DHT22;18022;45.492;11.548;2022-07-30T09:21:55;27.30;97.60
31391;DHT22;18022;45.492;11.548;2022-07-30T09:24:21;27.60;97.70
31391;DHT22;18022;45.492;11.548;2022-07-30T09:26:56;27.60;96.90
31391;DHT22;18022;45.492;11.548;2022-07-30T09:29:25;27.80;97.60
31391;DHT22;18022;45.492;11.548;2022-07-30T09:34:28;27.70;96.80
31391;DHT22;18022;45.492;11.548;2022-07-30T09:36:56;27.80;97.20
31391;DHT22;18022;45.492;11.548;2022-07-30T09:39:29;27.90;97.10
31391;DHT22;18022;45.492;11.548;2022-07-30T09:41:54;27.80;96.50
31391;DHT22;18022;45.492;11.548;2022-07-30T09:44:28;27.80;97.00
31391;DHT22;18022;45.492;11.548;2022-07-30T09:46:55;28.00;97.10
31391;DHT22;18022;45.492;11.548;2022-07-30T09:49:23;28.10;96.30
31391;DHT22;18022;45.492;11.548;2022-07-30T09:51:50;28.20;95.50
31391;DHT22;18022;45.492;11.548;2022-07-30T09:54:16;28.20;96.00
31391;DHT22;18022;45.492;11.548;2022-07-30T09:56:42;28.30;96.20
31391;DHT22;18022;45.492;11.548;2022-07-30T09:59:28;28.40;95.80
31391;DHT22;18022;45.492;11.548;2022-07-30T10:01:56;28.20;95.30
31391;DHT22;18022;45.492;11.548;2022-07-30T10:04:32;28.30;95.80
31391;DHT22;18022;45.492;11.548;2022-07-30T10:06:59;28.40;96.20
31391;DHT22;18022;45.492;11.548;2022-07-30T10:09:29;28.60;95.90
31391;DHT22;18022;45.492;11.548;2022-07-30T10:11:58;28.70;95.80
31391;DHT22;18022;45.492;11.548;2022-07-30T10:14:27;28.60;95.30
31391;DHT22;18022;45.492;11.548;2022-07-30T10:16:53;28.40;95.20
31391;DHT22;18022;45.492;11.548;2022-07-30T10:19:25;28.40;94.80
31391;DHT22;18022;45.492;11.548;2022-07-30T10:21:50;28.70;94.60
31391;DHT22;18022;45.492;11.548;2022-07-30T10:24:18;28.80;95.10
31391;DHT22;18022;45.492;11.548;2022-07-30T10:26:48;28.90;94.80
31391;DHT22;18022;45.492;11.548;2022-07-30T10:29:15;28.90;94.20
31391;DHT22;18022;45.492;11.548;2022-07-30T10:31:43;28.70;93.90
31391;DHT22;18022;45.492;11.548;2022-07-30T10:34:10;28.90;94.40
31391;DHT22;18022;45.492;11.548;2022-07-30T10:36:39;29.20;94.90
31391;DHT22;18022;45.492;11.548;2022-07-30T10:39:06;29.40;94.40
31391;DHT22;18022;45.492;11.548;2022-07-30T10:41:36;29.60;94.60
31391;DHT22;18022;45.492;11.548;2022-07-30T10:47:08;29.20;93.70
31391;DHT22;18022;45.492;11.548;2022-07-30T10:49:35;29.20;93.50
31391;DHT22;18022;45.492;11.548;2022-07-30T10:52:00;29.40;94.40
31391;DHT22;18022;45.492;11.548;2022-07-30T10:54:34;29.80;94.50
31391;DHT22;18022;45.492;11.548;2022-07-30T10:57:10;30.00;94.40
31391;DHT22;18022;45.492;11.548;2022-07-30T11:02:15;30.10;93.90
31391;DHT22;18022;45.492;11.548;2022-07-30T11:04:40;30.30;93.90
31391;DHT22;18022;45.492;11.548;2022-07-30T11:09:53;30.50;93.20
31391;DHT22;18022;45.492;11.548;2022-07-30T11:15:10;30.50;92.90
31391;DHT22;18022;45.492;11.548;2022-07-30T11:20:26;30.20;92.60
31391;DHT22;18022;45.492;11.548;2022-07-30T11:22:52;30.10;92.80
31391;DHT22;18022;45.492;11.548;2022-07-30T11:27:49;30.20;93.00
31391;DHT22;18022;45.492;11.548;2022-07-30T11:35:27;30.70;92.60
31391;DHT22;18022;45.492;11.548;2022-07-30T11:40:22;30.90;92.50
31391;DHT22;18022;45.492;11.548;2022-07-30T11:42:50;30.70;92.60
31391;DHT22;18022;45.492;11.548;2022-07-30T11:47:47;30.50;92.80
31391;DHT22;18022;45.492;11.548;2022-07-30T11:50:17;30.80;92.20
31391;DHT22;18022;45.492;11.548;2022-07-30T11:52:51;30.80;92.30
31391;DHT22;18022;45.492;11.548;2022-07-30T11:55:34;30.90;92.90
31391;DHT22;18022;45.492;11.548;2022-07-30T11:58:02;31.10;92.50
31391;DHT22;18022;45.492;11.548;2022-07-30T12:03:12;30.60;92.30
31391;DHT22;18022;45.492;11.548;2022-07-30T12:05:39;30.30;92.70
31391;DHT22;18022;45.492;11.548;2022-07-30T12:08:06;30.00;93.10
31391;DHT22;18022;45.492;11.548;2022-07-30T12:10:31;30.10;93.30
31391;DHT22;18022;45.492;11.548;2022-07-30T12:13:14;30.40;93.20
31391;DHT22;18022;45.492;11.548;2022-07-30T12:15:42;30.70;93.20
31391;DHT22;18022;45.492;11.548;2022-07-30T12:18:08;30.60;92.40
31391;DHT22;18022;45.492;11.548;2022-07-30T12:20:37;30.70;93.00
31391;DHT22;18022;45.492;11.548;2022-07-30T12:23:09;30.80;93.50
31391;DHT22;18022;45.492;11.548;2022-07-30T12:25:41;30.50;92.10
31391;DHT22;18022;45.492;11.548;2022-07-30T12:28:08;30.40;92.50
31391;DHT22;18022;45.492;11.548;2022-07-30T12:30:37;30.50;92.90
31391;DHT22;18022;45.492;11.548;2022-07-30T12:33:03;30.40;93.10
31391;DHT22;18022;45.492;11.548;2022-07-30T12:35:45;30.10;93.20
31391;DHT22;18022;45.492;11.548;2022-07-30T12:38:11;29.90;93.10
31391;DHT22;18022;45.492;11.548;2022-07-30T12:40:59;29.80;92.90
31391;DHT22;18022;45.492;11.548;2022-07-30T12:46:08;29.80;93.40
31391;DHT22;18022;45.492;11.548;2022-07-30T12:48:34;29.70;93.00
31391;DHT22;18022;45.492;11.548;2022-07-30T12:51:06;29.70;92.90
31391;DHT22;18022;45.492;11.548;2022-07-30T12:53:32;29.80;93.30
31391;DHT22;18022;45.492;11.548;2022-07-30T12:56:13;29.80;93.30
31391;DHT22;18022;45.492;11.548;2022-07-30T12:58:40;29.70;93.60
31391;DHT22;18022;45.492;11.548;2022-07-30T13:01:06;29.60;93.10
31391;DHT22;18022;45.492;11.548;2022-07-30T13:03:32;29.60;92.70
31391;DHT22;18022;45.492;11.548;2022-07-30T13:06:11;29.60;92.80
31391;DHT22;18022;45.492;11.548;2022-07-30T13:11:14;29.60;92.80
31391;DHT22;18022;45.492;11.548;2022-07-30T13:13:40;29.60;93.10
31391;DHT22;18022;45.492;11.548;2022-07-30T13:16:06;29.70;93.00
31391;DHT22;18022;45.492;11.548;2022-07-30T13:18:35;29.60;93.50
31391;DHT22;18022;45.492;11.548;2022-07-30T13:21:02;29.60;92.60
31391;DHT22;18022;45.492;11.548;2022-07-30T13:23:28;29.60;92.20
31391;DHT22;18022;45.492;11.548;2022-07-30T13:25:54;29.70;92.40
31391;DHT22;18022;45.492;11.548;2022-07-30T13:28:20;29.80;92.70
31391;DHT22;18022;45.492;11.548;2022-07-30T13:30:47;29.90;93.00
31391;DHT22;18022;45.492;11.548;2022-07-30T13:33:13;30.20;93.90
31391;DHT22;18022;45.492;11.548;2022-07-30T13:35:39;30.30;92.00
31391;DHT22;18022;45.492;11.548;2022-07-30T13:38:05;30.20;92.50
31391;DHT22;18022;45.492;11.548;2022-07-30T13:40:32;30.10;93.00
31391;DHT22;18022;45.492;11.548;2022-07-30T13:42:58;30.00;92.60
31391;DHT22;18022;45.492;11.548;2022-07-30T13:45:24;30.00;91.20
31391;DHT22;18022;45.492;11.548;2022-07-30T13:47:50;30.00;91.60
31391;DHT22;18022;45.492;11.548;2022-07-30T13:50:16;30.00;91.50
31391;DHT22;18022;45.492;11.548;2022-07-30T13:52:41;30.00;91.50
31391;DHT22;18022;45.492;11.548;2022-07-30T13:55:07;30.00;91.60
31391;DHT22;18022;45.492;11.548;2022-07-30T13:57:33;29.90;91.60
31391;DHT22;18022;45.492;11.548;2022-07-30T13:59:58;29.90;92.40
31391;DHT22;18022;45.492;11.548;2022-07-30T14:02:24;30.00;91.60
31391;DHT22;18022;45.492;11.548;2022-07-30T14:04:50;30.10;91.50
31391;DHT22;18022;45.492;11.548;2022-07-30T14:07:15;30.20;92.10
31391;DHT22;18022;45.492;11.548;2022-07-30T14:09:41;30.40;91.80
31391;DHT22;18022;45.492;11.548;2022-07-30T14:12:07;30.60;91.90
31391;DHT22;18022;45.492;11.548;2022-07-30T14:14:33;30.60;91.00
31391;DHT22;18022;45.492;11.548;2022-07-30T14:16:58;30.40;91.50
31391;DHT22;18022;45.492;11.548;2022-07-30T14:19:24;30.40;91.50
31391;DHT22;18022;45.492;11.548;2022-07-30T14:21:51;30.50;91.50
31391;DHT22;18022;45.492;11.548;2022-07-30T14:24:17;30.70;91.90
31391;DHT22;18022;45.492;11.548;2022-07-30T14:26:42;31.00;90.80
31391;DHT22;18022;45.492;11.548;2022-07-30T14:29:09;31.10;90.70
31391;DHT22;18022;45.492;11.548;2022-07-30T14:31:35;31.10;88.90
31391;DHT22;18022;45.492;11.548;2022-07-30T14:34:02;31.10;86.30
31391;DHT22;18022;45.492;11.548;2022-07-30T14:36:28;31.10;85.90
31391;DHT22;18022;45.492;11.548;2022-07-30T14:38:55;31.00;85.90
31391;DHT22;18022;45.492;11.548;2022-07-30T14:41:22;31.00;85.80
31391;DHT22;18022;45.492;11.548;2022-07-30T14:43:48;30.80;86.30
31391;DHT22;18022;45.492;11.548;2022-07-30T14:46:14;30.70;85.00
31391;DHT22;18022;45.492;11.548;2022-07-30T14:48:39;30.90;86.40
31391;DHT22;18022;45.492;11.548;2022-07-30T14:51:05;30.80;86.90
31391;DHT22;18022;45.492;11.548;2022-07-30T14:53:32;31.00;85.80
31391;DHT22;18022;45.492;11.548;2022-07-30T14:56:03;31.10;84.80
31391;DHT22;18022;45.492;11.548;2022-07-30T14:58:28;31.10;84.20
31391;DHT22;18022;45.492;11.548;2022-07-30T15:00:54;31.20;85.20
31391;DHT22;18022;45.492;11.548;2022-07-30T15:03:20;31.30;85.90
31391;DHT22;18022;45.492;11.548;2022-07-30T15:05:46;31.30;84.80
31391;DHT22;18022;45.492;11.548;2022-07-30T15:08:11;31.40;82.80
31391;DHT22;18022;45.492;11.548;2022-07-30T15:10:38;31.40;81.70
31391;DHT22;18022;45.492;11.548;2022-07-30T15:13:04;31.40;83.70
31391;DHT22;18022;45.492;11.548;2022-07-30T15:15:30;31.40;81.30
31391;DHT22;18022;45.492;11.548;2022-07-30T15:17:57;31.30;81.80
31391;DHT22;18022;45.492;11.548;2022-07-30T15:20:23;31.40;82.10
31391;DHT22;18022;45.492;11.548;2022-07-30T15:22:49;31.40;83.20
31391;DHT22;18022;45.492;11.548;2022-07-30T15:25:15;31.30;83.20
31391;DHT22;18022;45.492;11.548;2022-07-30T15:27:41;31.40;84.00
31391;DHT22;18022;45.492;11.548;2022-07-30T15:30:06;31.40;83.40
31391;DHT22;18022;45.492;11.548;2022-07-30T15:32:32;31.30;83.70
31391;DHT22;18022;45.492;11.548;2022-07-30T15:34:58;31.20;83.90
31391;DHT22;18022;45.492;11.548;2022-07-30T15:37:24;31.20;83.10
31391;DHT22;18022;45.492;11.548;2022-07-30T15:39:50;31.30;81.90
31391;DHT22;18022;45.492;11.548;2022-07-30T15:42:16;31.40;82.90
31391;DHT22;18022;45.492;11.548;2022-07-30T15:44:42;31.50;83.80
31391;DHT22;18022;45.492;11.548;2022-07-30T15:47:07;31.40;83.80
31391;DHT22;18022;45.492;11.548;2022-07-30T15:49:33;31.20;81.90
31391;DHT22;18022;45.492;11.548;2022-07-30T15:51:59;31.20;81.60
31391;DHT22;18022;45.492;11.548;2022-07-30T15:54:25;31.30;83.20
31391;DHT22;18022;45.492;11.548;2022-07-30T15:56:52;31.30;82.10
31391;DHT22;18022;45.492;11.548;2022-07-30T15:59:19;31.40;81.40